Prospect, Oregon
Current Conditions -  °F | °C
As of 1:53 PM on Thursday 18 Dec 2014 (Local Time) from KMFR Reporting Station
Broken Clouds Broken Clouds  
Wind Chill: 50°   Ceiling: 11000
Heat Index: 50°   Visibility: 10mi
Dew Point: 44°   Wind: 5mph
Humidity: 80%   Direction: 320°NW
Pressure: 29.97"   Gusts: NA
Location:  42.75°N, 122.49°W
Report Text: KMFR 182153Z 32004KT 10SM SCT080 BKN110 10/07 A2997 RMK AO2 RAB03E17 SLP151 P0000 T01000067
Loading
Personal Weather Stations






























Interactive Weather Map New forecast layout! Learn more

10-Day Weather Forecast

Advertisements
Track Severe Weather on mobile